createdAt,value
2022-11-16T00:00:45.286Z,61.59
2022-11-16T00:01:38.921Z,61.69
2022-11-16T00:02:32.450Z,61.49
2022-11-16T00:03:25.932Z,60.79
2022-11-16T00:04:19.492Z,61.40
2022-11-16T00:05:13.060Z,61.19
2022-11-16T00:06:06.606Z,60.89
2022-11-16T00:07:00.212Z,60.89
2022-11-16T00:07:53.706Z,61.19
2022-11-16T00:08:47.282Z,60.99
2022-11-16T00:09:40.836Z,60.39
2022-11-16T00:10:34.371Z,60.99
2022-11-16T00:11:27.922Z,60.79
2022-11-16T00:12:21.468Z,60.99
2022-11-16T00:13:05.156Z,61.49
2022-11-16T00:13:48.821Z,60.99
2022-11-16T00:14:42.397Z,60.79
2022-11-16T00:15:35.944Z,61.29
2022-11-16T00:16:29.478Z,60.39
2022-11-16T00:17:23.014Z,60.69
2022-11-16T00:18:16.581Z,60.69
2022-11-16T00:19:10.123Z,60.99
2022-11-16T00:20:03.688Z,61.09
2022-11-16T00:20:57.235Z,60.39
2022-11-16T00:21:50.801Z,60.59
2022-11-16T00:22:44.362Z,61.59
2022-11-16T00:23:28.053Z,60.79
2022-11-16T00:24:21.635Z,61.29
2022-11-16T00:25:15.181Z,60.89
2022-11-16T00:26:08.706Z,60.42
2022-11-16T00:27:02.255Z,60.79
2022-11-16T00:27:55.799Z,60.99
2022-11-16T00:28:49.346Z,61.09
2022-11-16T00:29:42.916Z,60.99
2022-11-16T00:30:36.466Z,61.02
2022-11-16T00:31:30.005Z,60.79
2022-11-16T00:32:23.562Z,60.99
2022-11-16T00:33:17.111Z,61.09
2022-11-16T00:34:10.669Z,60.92
2022-11-16T00:35:04.209Z,60.89
2022-11-16T00:35:57.772Z,60.79
2022-11-16T00:36:51.316Z,60.49
2022-11-16T00:37:44.856Z,60.99
2022-11-16T00:38:28.533Z,60.89
2022-11-16T00:39:22.085Z,60.89
2022-11-16T00:40:15.664Z,60.99
2022-11-16T00:41:09.190Z,59.89
2022-11-16T00:42:02.754Z,60.29
2022-11-16T00:42:56.297Z,60.29
2022-11-16T00:43:49.837Z,60.59
2022-11-16T00:44:43.420Z,60.99
2022-11-16T00:45:36.990Z,60.79
2022-11-16T00:46:30.561Z,61.19
2022-11-16T00:47:24.115Z,60.19
2022-11-16T00:48:17.687Z,61.40
2022-11-16T00:49:11.222Z,60.62
2022-11-16T00:50:04.786Z,60.10
2022-11-16T00:50:58.366Z,60.29
2022-11-16T00:51:51.912Z,60.89
2022-11-16T00:52:45.481Z,60.19
2022-11-16T00:53:39.000Z,60.79
2022-11-16T00:54:32.562Z,60.79
2022-11-16T00:55:26.119Z,60.89
2022-11-16T00:56:19.653Z,60.19
2022-11-16T00:57:13.203Z,61.22
2022-11-16T00:58:17.002Z,61.19
2022-11-16T00:59:10.554Z,60.39
2022-11-16T01:00:04.113Z,60.79
2022-11-16T01:00:57.699Z,60.39
2022-11-16T01:01:51.275Z,60.52
2022-11-16T01:02:44.757Z,60.92
2022-11-16T01:03:38.297Z,59.69
2022-11-16T01:04:31.837Z,60.59
2022-11-16T01:05:25.398Z,60.29
2022-11-16T01:06:18.957Z,60.29
2022-11-16T01:07:12.559Z,60.22
2022-11-16T01:08:06.074Z,60.10
2022-11-16T01:08:49.752Z,60.29
2022-11-16T01:09:33.422Z,59.69
2022-11-16T01:10:26.988Z,59.69
2022-11-16T01:11:20.568Z,60.19
2022-11-16T01:12:14.102Z,60.32
2022-11-16T01:13:07.650Z,60.49
2022-11-16T01:14:01.191Z,60.22
2022-11-16T01:14:54.738Z,60.69
2022-11-16T01:15:48.302Z,61.02
2022-11-16T01:16:41.850Z,59.62
2022-11-16T01:17:35.391Z,60.22
2022-11-16T01:18:28.960Z,60.32
2022-11-16T01:19:22.529Z,59.52
2022-11-16T01:20:16.049Z,61.09
2022-11-16T01:21:09.604Z,60.92
2022-11-16T01:22:03.144Z,60.22
2022-11-16T01:22:56.742Z,60.69
2022-11-16T01:23:50.369Z,60.52
2022-11-16T01:24:43.917Z,60.42
2022-11-16T01:25:37.461Z,59.72
2022-11-16T01:26:31.027Z,61.02
2022-11-16T01:27:24.548Z,60.12
2022-11-16T01:28:18.131Z,61.12
2022-11-16T01:29:11.684Z,60.32
2022-11-16T01:30:05.228Z,60.32
2022-11-16T01:30:58.774Z,60.92
2022-11-16T01:31:52.327Z,60.12
2022-11-16T01:32:45.869Z,60.22
2022-11-16T01:33:39.432Z,60.72
2022-11-16T01:34:23.102Z,61.12
2022-11-16T01:35:06.768Z,60.72
2022-11-16T01:36:01.347Z,61.12
2022-11-16T01:36:45.010Z,61.12
2022-11-16T01:37:38.577Z,61.02
2022-11-16T01:38:32.565Z,60.22
2022-11-16T01:39:25.694Z,61.12
2022-11-16T01:40:19.236Z,60.92
2022-11-16T01:41:12.788Z,61.02
2022-11-16T01:42:06.349Z,60.92
2022-11-16T01:42:59.872Z,60.12
2022-11-16T01:43:53.414Z,60.62
2022-11-16T01:44:46.974Z,60.02
2022-11-16T01:45:40.516Z,60.42
2022-11-16T01:46:24.205Z,60.22
2022-11-16T01:47:17.807Z,60.42
2022-11-16T01:48:11.386Z,59.72
2022-11-16T01:49:04.909Z,60.42
2022-11-16T01:49:58.470Z,60.62
2022-11-16T01:50:52.248Z,60.42
2022-11-16T01:51:45.979Z,59.92
2022-11-16T01:52:39.615Z,59.62
2022-11-16T01:53:33.227Z,60.12
2022-11-16T01:54:26.864Z,59.72
2022-11-16T01:55:20.466Z,59.92
2022-11-16T01:56:14.100Z,59.82
2022-11-16T01:57:07.730Z,60.12
2022-11-16T01:58:01.375Z,59.72
2022-11-16T01:58:54.965Z,59.82
2022-11-16T01:59:48.602Z,60.42
2022-11-16T02:00:42.264Z,59.72
2022-11-16T02:01:35.851Z,59.62
2022-11-16T02:02:29.576Z,60.12
2022-11-16T02:03:23.126Z,59.62
2022-11-16T02:04:16.674Z,59.72
2022-11-16T02:05:10.231Z,60.22
2022-11-16T02:06:03.820Z,59.62
2022-11-16T02:06:47.563Z,60.12
2022-11-16T02:07:41.046Z,59.82
2022-11-16T02:08:34.992Z,59.72
2022-11-16T02:09:18.249Z,59.82
2022-11-16T02:10:11.811Z,59.92
2022-11-16T02:11:05.358Z,60.02
2022-11-16T02:11:58.899Z,59.62
2022-11-16T02:12:52.460Z,60.12
2022-11-16T02:13:46.016Z,60.12
2022-11-16T02:14:39.532Z,59.92
2022-11-16T02:15:33.085Z,59.82
2022-11-16T02:16:26.638Z,60.02
2022-11-16T02:17:10.295Z,60.22
2022-11-16T02:18:14.110Z,59.72
2022-11-16T02:19:07.641Z,60.32
2022-11-16T02:20:01.208Z,60.12
2022-11-16T02:20:54.742Z,59.82
2022-11-16T02:21:48.323Z,59.62
2022-11-16T02:22:41.867Z,60.12
2022-11-16T02:23:25.557Z,60.02
2022-11-16T02:24:19.095Z,59.72
2022-11-16T02:25:12.646Z,59.82
2022-11-16T02:26:06.210Z,59.92
2022-11-16T02:26:59.775Z,59.92
2022-11-16T02:27:53.342Z,59.82
2022-11-16T02:28:46.884Z,59.92
2022-11-16T02:29:40.467Z,59.82
2022-11-16T02:30:34.008Z,60.02
2022-11-16T02:31:27.540Z,60.02
2022-11-16T02:32:21.134Z,60.02
2022-11-16T02:33:14.649Z,60.12
2022-11-16T02:34:08.187Z,60.02
2022-11-16T02:35:01.731Z,59.82
2022-11-16T02:35:55.289Z,60.12
2022-11-16T02:36:48.833Z,60.22
2022-11-16T02:37:42.381Z,59.82
2022-11-16T02:38:36.248Z,59.72
2022-11-16T02:39:29.467Z,59.82
2022-11-16T02:40:23.032Z,60.12
2022-11-16T02:41:16.589Z,60.22
2022-11-16T02:42:10.127Z,59.72
2022-11-16T02:43:03.677Z,60.22
2022-11-16T02:43:57.245Z,60.02
2022-11-16T02:44:50.811Z,59.82
2022-11-16T02:45:44.325Z,60.02
2022-11-16T02:46:37.869Z,60.02
2022-11-16T02:47:21.531Z,60.02
2022-11-16T02:48:15.077Z,59.82
2022-11-16T02:49:08.637Z,60.02
2022-11-16T02:50:02.183Z,60.02
2022-11-16T02:51:06.057Z,60.12
2022-11-16T02:51:59.597Z,60.12
2022-11-16T02:52:43.292Z,59.82
2022-11-16T02:53:36.850Z,59.82
2022-11-16T02:54:30.393Z,60.22
2022-11-16T02:55:23.937Z,59.72
2022-11-16T02:56:17.489Z,60.12
2022-11-16T02:57:11.050Z,59.92
2022-11-16T02:58:04.594Z,60.02
2022-11-16T02:58:58.158Z,59.92
2022-11-16T02:59:51.726Z,60.12
2022-11-16T03:00:45.358Z,59.82
2022-11-16T03:01:38.782Z,60.22
2022-11-16T03:02:32.331Z,59.92
2022-11-16T03:03:25.878Z,60.02
2022-11-16T03:04:19.421Z,59.82
2022-11-16T03:05:12.992Z,60.12
2022-11-16T03:05:56.652Z,59.92
2022-11-16T03:06:50.258Z,60.02
2022-11-16T03:07:43.761Z,59.72
2022-11-16T03:08:37.312Z,60.12
2022-11-16T03:09:30.897Z,60.02
2022-11-16T03:10:24.417Z,60.12
2022-11-16T03:11:17.954Z,60.02
2022-11-16T03:12:11.529Z,59.62
2022-11-16T03:13:05.054Z,59.65
2022-11-16T03:13:48.743Z,59.82
2022-11-16T03:14:42.287Z,59.62
2022-11-16T03:15:35.861Z,60.02
2022-11-16T03:16:29.411Z,59.52
2022-11-16T03:17:22.929Z,59.42
2022-11-16T03:18:16.481Z,59.32
2022-11-16T03:19:10.051Z,59.62
2022-11-16T03:20:03.597Z,60.12
2022-11-16T03:20:57.153Z,59.52
2022-11-16T03:21:50.686Z,59.82
2022-11-16T03:22:44.274Z,59.52
2022-11-16T03:23:27.963Z,59.82
2022-11-16T03:24:11.634Z,59.52
2022-11-16T03:25:05.189Z,60.12
2022-11-16T03:25:58.729Z,59.42
2022-11-16T03:26:52.293Z,59.32
2022-11-16T03:27:45.855Z,59.42
2022-11-16T03:28:39.378Z,59.52
2022-11-16T03:29:32.932Z,59.32
2022-11-16T03:30:26.477Z,59.32
2022-11-16T03:31:20.049Z,59.82
2022-11-16T03:32:13.606Z,59.32
2022-11-16T03:33:07.161Z,59.75
2022-11-16T03:34:00.712Z,59.32
2022-11-16T03:34:54.262Z,59.62
2022-11-16T03:35:47.810Z,59.32
2022-11-16T03:36:41.384Z,59.82
2022-11-16T03:37:34.960Z,59.42
2022-11-16T03:38:28.504Z,59.35
2022-11-16T03:39:12.179Z,59.42
2022-11-16T03:40:05.804Z,59.42
2022-11-16T03:40:59.330Z,59.62
2022-11-16T03:41:52.896Z,59.42
2022-11-16T03:42:46.421Z,59.32
2022-11-16T03:43:39.987Z,59.42
2022-11-16T03:44:43.792Z,59.35
2022-11-16T03:45:37.337Z,59.32
2022-11-16T03:46:30.891Z,59.92
2022-11-16T03:47:24.444Z,59.42
2022-11-16T03:48:17.980Z,59.32
2022-11-16T03:49:11.569Z,59.72
2022-11-16T03:50:05.121Z,59.72
2022-11-16T03:50:58.659Z,59.52
2022-11-16T03:51:52.204Z,59.32
2022-11-16T03:52:45.764Z,59.52
2022-11-16T03:53:39.307Z,59.92
2022-11-16T03:54:32.849Z,59.62
2022-11-16T03:55:26.392Z,59.72
2022-11-16T03:56:19.957Z,59.85
2022-11-16T03:57:13.500Z,59.52
2022-11-16T03:58:07.031Z,59.75
2022-11-16T03:59:00.564Z,60.05
2022-11-16T03:59:54.139Z,59.62
2022-11-16T04:00:48.254Z,59.72
2022-11-16T04:01:44.712Z,59.62
2022-11-16T04:02:35.314Z,59.75
2022-11-16T04:03:18.978Z,59.72
2022-11-16T04:04:12.501Z,59.75
2022-11-16T04:05:06.062Z,59.62
2022-11-16T04:05:59.611Z,59.75
2022-11-16T04:06:53.201Z,59.85
2022-11-16T04:07:46.742Z,59.72
2022-11-16T04:08:40.271Z,59.85
2022-11-16T04:09:33.807Z,59.75
2022-11-16T04:10:27.366Z,59.85
2022-11-16T04:11:20.916Z,59.92
2022-11-16T04:12:14.454Z,59.65
2022-11-16T04:13:08.033Z,59.85
2022-11-16T04:13:52.199Z,59.82
2022-11-16T04:14:45.755Z,59.52
2022-11-16T04:15:39.327Z,59.85
2022-11-16T04:16:32.850Z,59.52
2022-11-16T04:17:37.204Z,59.75
2022-11-16T04:18:31.115Z,59.65
2022-11-16T04:19:24.772Z,59.95
2022-11-16T04:20:18.322Z,59.55
2022-11-16T04:21:11.857Z,59.85
2022-11-16T04:21:55.527Z,59.85
2022-11-16T04:22:49.568Z,59.75
2022-11-16T04:23:43.126Z,59.55
2022-11-16T04:24:36.674Z,59.55
2022-11-16T04:25:30.237Z,59.62
2022-11-16T04:26:23.782Z,59.65
2022-11-16T04:27:17.330Z,59.45
2022-11-16T04:28:01.002Z,59.45
2022-11-16T04:28:54.593Z,59.65
2022-11-16T04:29:48.135Z,59.52
2022-11-16T04:30:41.677Z,59.55
2022-11-16T04:31:35.239Z,59.65
2022-11-16T04:32:28.769Z,59.45
2022-11-16T04:33:32.594Z,59.65
2022-11-16T04:34:26.129Z,59.65
2022-11-16T04:35:19.678Z,59.85
2022-11-16T04:36:17.854Z,59.65
2022-11-16T04:37:06.777Z,59.45
2022-11-16T04:38:00.313Z,59.65
2022-11-16T04:38:53.851Z,59.35
2022-11-16T04:39:47.407Z,59.45
2022-11-16T04:40:40.988Z,53.09
2022-11-16T04:41:34.527Z,46.86
2022-11-16T04:42:28.116Z,50.30
2022-11-16T04:43:21.635Z,48.90
2022-11-16T04:44:15.181Z,56.59
2022-11-16T04:45:08.782Z,57.87
2022-11-16T04:46:02.327Z,56.33
2022-11-16T04:46:55.883Z,52.13
2022-11-16T04:47:49.433Z,54.53
2022-11-16T04:48:43.016Z,55.76
2022-11-16T04:49:36.560Z,55.78
2022-11-16T04:50:20.231Z,57.36
2022-11-16T04:51:13.782Z,68.90
2022-11-16T04:52:07.333Z,63.57
2022-11-16T04:53:00.886Z,60.69
2022-11-16T04:53:54.478Z,60.21
2022-11-16T04:54:47.966Z,55.89
2022-11-16T04:55:31.644Z,55.36
2022-11-16T04:56:25.190Z,55.00
2022-11-16T04:57:18.751Z,55.18
2022-11-16T04:58:12.281Z,55.43
2022-11-16T04:59:05.829Z,53.80
2022-11-16T04:59:59.372Z,53.50
2022-11-16T05:00:52.967Z,53.87
2022-11-16T05:01:46.555Z,53.47
2022-11-16T05:02:40.035Z,53.25
2022-11-16T05:03:33.574Z,52.94
2022-11-16T05:04:27.134Z,52.92
2022-11-16T05:05:10.790Z,52.72
2022-11-16T05:06:04.383Z,53.22
2022-11-16T05:06:57.913Z,52.72
2022-11-16T05:07:51.417Z,52.32
2022-11-16T05:08:44.982Z,52.80
2022-11-16T05:09:38.575Z,52.89
2022-11-16T05:10:32.122Z,53.59
2022-11-16T05:11:25.669Z,52.69
2022-11-16T05:12:19.226Z,53.09
2022-11-16T05:13:12.797Z,53.00
2022-11-16T05:14:06.336Z,53.69
2022-11-16T05:15:10.147Z,53.59
2022-11-16T05:16:03.766Z,53.57
2022-11-16T05:16:57.316Z,53.57
2022-11-16T05:17:50.820Z,53.67
2022-11-16T05:18:44.366Z,53.77
2022-11-16T05:19:37.938Z,53.77
2022-11-16T05:20:31.455Z,53.74
2022-11-16T05:21:25.015Z,53.74
2022-11-16T05:22:18.574Z,53.24
2022-11-16T05:23:12.104Z,53.64
2022-11-16T05:24:05.634Z,53.64
2022-11-16T05:24:59.162Z,53.44
2022-11-16T05:25:43.312Z,53.85
2022-11-16T05:26:37.331Z,53.94
2022-11-16T05:27:21.003Z,54.05
2022-11-16T05:28:14.523Z,54.74
2022-11-16T05:29:08.052Z,54.85
2022-11-16T05:30:01.599Z,54.94
2022-11-16T05:30:55.634Z,54.85
2022-11-16T05:31:49.184Z,54.85
2022-11-16T05:32:43.237Z,54.82
2022-11-16T05:33:26.898Z,55.74
2022-11-16T05:34:20.466Z,55.35
2022-11-16T05:35:04.149Z,55.44
2022-11-16T05:35:57.679Z,55.55
2022-11-16T05:36:51.224Z,55.32
2022-11-16T05:37:44.777Z,55.44
2022-11-16T05:38:28.469Z,56.24
2022-11-16T05:39:22.029Z,55.74
2022-11-16T05:40:05.742Z,55.85
2022-11-16T05:40:59.289Z,55.85
2022-11-16T05:41:52.817Z,55.74
2022-11-16T05:42:46.372Z,55.74
2022-11-16T05:43:39.924Z,56.15
2022-11-16T05:44:33.475Z,55.82
2022-11-16T05:45:27.007Z,55.92
2022-11-16T05:46:20.531Z,55.72
2022-11-16T05:47:14.061Z,56.72
2022-11-16T05:48:07.592Z,56.72
2022-11-16T05:48:51.546Z,55.92
2022-11-16T05:49:35.058Z,56.42
2022-11-16T05:50:28.596Z,55.82
2022-11-16T05:51:22.097Z,56.62
2022-11-16T05:52:15.629Z,56.22
2022-11-16T05:53:09.160Z,56.42
2022-11-16T05:54:02.682Z,56.22
2022-11-16T05:54:56.215Z,56.02
2022-11-16T05:55:49.823Z,55.92
2022-11-16T05:56:43.275Z,55.92
2022-11-16T05:57:26.961Z,55.99
2022-11-16T05:58:20.482Z,56.22
2022-11-16T05:59:16.569Z,56.92
2022-11-16T06:00:07.536Z,56.49
2022-11-16T06:00:51.251Z,56.32
2022-11-16T06:01:44.776Z,56.52
2022-11-16T06:02:38.357Z,56.79
2022-11-16T06:03:31.908Z,56.70
2022-11-16T06:04:25.381Z,56.70
2022-11-16T06:05:29.152Z,56.09
2022-11-16T06:06:22.717Z,56.70
2022-11-16T06:07:16.309Z,56.89
2022-11-16T06:08:10.821Z,56.20
2022-11-16T06:09:04.357Z,56.59
2022-11-16T06:09:57.870Z,57.42
2022-11-16T06:10:51.404Z,57.02
2022-11-16T06:11:44.945Z,56.79
2022-11-16T06:12:38.470Z,57.39
2022-11-16T06:13:31.994Z,56.89
2022-11-16T06:14:25.515Z,56.09
2022-11-16T06:15:19.038Z,56.89
2022-11-16T06:16:03.000Z,56.59
2022-11-16T06:16:56.281Z,56.59
2022-11-16T06:17:49.781Z,56.62
2022-11-16T06:18:43.314Z,55.72
2022-11-16T06:19:36.853Z,56.12
2022-11-16T06:20:30.884Z,56.02
2022-11-16T06:21:24.413Z,56.82
2022-11-16T06:22:18.012Z,56.22
2022-11-16T06:23:11.562Z,56.02
2022-11-16T06:24:05.149Z,56.12
2022-11-16T06:24:58.668Z,56.20
2022-11-16T06:25:52.215Z,56.02
2022-11-16T06:26:45.768Z,55.82
2022-11-16T06:27:39.368Z,55.72
2022-11-16T06:28:33.393Z,55.92
2022-11-16T06:29:26.479Z,55.62
2022-11-16T06:30:20.005Z,55.42
2022-11-16T06:31:13.564Z,55.52
2022-11-16T06:32:07.147Z,55.42
2022-11-16T06:33:00.687Z,54.92
2022-11-16T06:33:54.239Z,55.72
2022-11-16T06:34:47.805Z,55.32
2022-11-16T06:35:41.357Z,55.32
2022-11-16T06:36:34.937Z,55.42
2022-11-16T06:37:28.492Z,55.72
2022-11-16T06:38:22.056Z,55.32
2022-11-16T06:39:15.605Z,55.22
2022-11-16T06:39:59.295Z,55.72
2022-11-16T06:40:52.871Z,55.19
2022-11-16T06:41:46.448Z,55.29
2022-11-16T06:42:40.023Z,55.69
2022-11-16T06:43:34.129Z,54.90
2022-11-16T06:44:27.678Z,55.09
2022-11-16T06:45:21.274Z,55.72
2022-11-16T06:46:14.864Z,55.69
2022-11-16T06:47:08.725Z,55.69
2022-11-16T06:48:01.946Z,55.29
2022-11-16T06:48:55.490Z,54.90
2022-11-16T06:49:49.090Z,55.29
2022-11-16T06:50:42.655Z,55.59
2022-11-16T06:51:36.187Z,55.32
2022-11-16T06:52:29.716Z,55.29
2022-11-16T06:53:28.785Z,55.69
2022-11-16T06:54:16.781Z,55.49
2022-11-16T06:55:10.311Z,55.40
2022-11-16T06:56:03.849Z,55.09
2022-11-16T06:56:57.387Z,55.69
2022-11-16T06:57:50.939Z,55.09
2022-11-16T06:58:44.510Z,55.09
2022-11-16T06:59:48.285Z,55.29
2022-11-16T07:00:41.864Z,55.09
2022-11-16T07:01:35.402Z,55.09
2022-11-16T07:02:28.953Z,54.77
2022-11-16T07:03:22.491Z,55.59
2022-11-16T07:04:16.042Z,55.19
2022-11-16T07:05:09.587Z,55.27
2022-11-16T07:06:03.129Z,55.27
2022-11-16T07:06:56.713Z,55.27
2022-11-16T07:07:40.346Z,54.67
2022-11-16T07:08:34.127Z,54.67
2022-11-16T07:09:27.482Z,54.86
2022-11-16T07:10:21.015Z,54.57
2022-11-16T07:11:14.550Z,54.86
2022-11-16T07:12:08.102Z,54.79
2022-11-16T07:13:01.663Z,55.66
2022-11-16T07:13:55.230Z,55.36
2022-11-16T07:14:48.772Z,55.77
2022-11-16T07:15:42.307Z,55.27
2022-11-16T07:16:36.338Z,54.90
2022-11-16T07:17:29.881Z,55.27
2022-11-16T07:18:23.474Z,55.57
2022-11-16T07:19:16.988Z,55.27
2022-11-16T07:20:10.534Z,54.99
2022-11-16T07:21:04.596Z,55.17
2022-11-16T07:21:58.156Z,54.97
2022-11-16T07:22:51.719Z,54.86
2022-11-16T07:23:45.250Z,54.86
2022-11-16T07:24:38.820Z,54.77
2022-11-16T07:25:32.362Z,54.97
2022-11-16T07:26:26.404Z,55.17
2022-11-16T07:27:19.948Z,54.86
2022-11-16T07:28:13.515Z,54.97
2022-11-16T07:29:07.073Z,54.97
2022-11-16T07:30:00.649Z,54.86
2022-11-16T07:30:54.169Z,55.07
2022-11-16T07:31:38.353Z,55.07
2022-11-16T07:32:31.929Z,54.67
2022-11-16T07:33:25.472Z,54.67
2022-11-16T07:34:19.024Z,55.07
2022-11-16T07:35:12.563Z,54.86
2022-11-16T07:36:06.131Z,54.67
2022-11-16T07:36:59.671Z,54.97
2022-11-16T07:37:53.206Z,55.36
2022-11-16T07:38:46.785Z,55.57
2022-11-16T07:39:40.311Z,54.86
2022-11-16T07:40:33.858Z,55.17
2022-11-16T07:41:17.542Z,54.97
2022-11-16T07:42:21.349Z,54.97
2022-11-16T07:43:14.882Z,54.86
2022-11-16T07:44:12.041Z,55.17
2022-11-16T07:45:01.999Z,55.17
2022-11-16T07:45:45.676Z,54.86
2022-11-16T07:46:47.965Z,54.74
2022-11-16T07:47:32.783Z,54.84
2022-11-16T07:48:26.330Z,54.84
2022-11-16T07:49:19.927Z,54.84
2022-11-16T07:50:13.474Z,54.74
2022-11-16T07:51:07.638Z,54.86
2022-11-16T07:52:01.176Z,55.36
2022-11-16T07:52:54.723Z,54.84
2022-11-16T07:53:48.256Z,54.86
2022-11-16T07:54:41.844Z,55.04
2022-11-16T07:55:35.389Z,54.86
2022-11-16T07:56:28.946Z,54.84
2022-11-16T07:57:23.095Z,55.07
2022-11-16T07:58:06.762Z,54.86
2022-11-16T07:59:00.316Z,54.97
2022-11-16T07:59:43.992Z,54.97
2022-11-16T08:00:37.578Z,54.77
2022-11-16T08:01:31.158Z,55.17
2022-11-16T08:02:24.691Z,54.97
2022-11-16T08:03:23.419Z,54.86
2022-11-16T08:04:11.819Z,54.97
2022-11-16T08:05:05.478Z,54.86
2022-11-16T08:05:58.919Z,54.97
2022-11-16T08:06:52.595Z,54.86
2022-11-16T08:07:46.034Z,54.86
2022-11-16T08:08:55.110Z,54.77
2022-11-16T08:09:33.532Z,54.67
2022-11-16T08:10:27.115Z,55.27
2022-11-16T08:11:20.625Z,54.86
2022-11-16T08:12:14.192Z,54.86
2022-11-16T08:13:07.750Z,54.86
2022-11-16T08:14:01.305Z,54.64
2022-11-16T08:14:54.854Z,54.94
2022-11-16T08:15:48.417Z,54.84
2022-11-16T08:16:52.219Z,54.86
2022-11-16T08:17:45.781Z,54.94
2022-11-16T08:18:39.326Z,54.74
2022-11-16T08:19:43.140Z,54.97
2022-11-16T08:20:36.806Z,54.86
2022-11-16T08:21:20.334Z,54.94
2022-11-16T08:22:13.895Z,55.14
2022-11-16T08:23:07.451Z,54.94
2022-11-16T08:24:01.008Z,54.84
2022-11-16T08:24:54.556Z,54.84
2022-11-16T08:25:48.102Z,54.94
2022-11-16T08:26:41.658Z,54.94
2022-11-16T08:27:35.201Z,55.24
2022-11-16T08:28:28.759Z,54.64
2022-11-16T08:29:12.448Z,55.14
2022-11-16T08:29:56.111Z,54.77
2022-11-16T08:30:53.662Z,54.84
2022-11-16T08:31:33.330Z,54.94
2022-11-16T08:32:26.908Z,54.84
2022-11-16T08:33:20.465Z,54.74
2022-11-16T08:34:24.290Z,54.57
2022-11-16T08:35:17.847Z,54.84
2022-11-16T08:36:14.239Z,55.04
2022-11-16T08:37:04.927Z,54.84
2022-11-16T08:37:58.466Z,54.94
2022-11-16T08:38:52.005Z,54.17
2022-11-16T08:39:45.560Z,54.94
2022-11-16T08:40:39.136Z,55.24
2022-11-16T08:41:32.689Z,55.14
2022-11-16T08:42:26.226Z,54.94
2022-11-16T08:43:19.781Z,55.14
2022-11-16T08:44:13.312Z,55.24
2022-11-16T08:45:17.131Z,55.24
2022-11-16T08:46:10.696Z,54.94
2022-11-16T08:47:04.245Z,54.84
2022-11-16T08:47:47.911Z,55.44
2022-11-16T08:48:41.454Z,55.24
2022-11-16T08:49:35.009Z,54.94
2022-11-16T08:50:28.552Z,54.94
2022-11-16T08:51:22.216Z,54.84
2022-11-16T08:52:15.687Z,54.94
2022-11-16T08:53:09.237Z,54.74
2022-11-16T08:54:02.802Z,55.04
2022-11-16T08:54:56.345Z,54.84
2022-11-16T08:55:40.043Z,55.24
2022-11-16T08:56:33.570Z,55.07
2022-11-16T08:57:27.137Z,54.84
2022-11-16T08:58:20.688Z,54.34
2022-11-16T08:59:14.224Z,55.04
2022-11-16T09:00:07.786Z,54.74
2022-11-16T09:01:01.353Z,54.94
2022-11-16T09:02:05.244Z,54.84
2022-11-16T09:02:58.729Z,54.94
2022-11-16T09:04:02.541Z,54.54
2022-11-16T09:04:56.090Z,54.04
2022-11-16T09:05:49.632Z,54.94
2022-11-16T09:06:43.215Z,54.74
2022-11-16T09:07:36.813Z,55.34
2022-11-16T09:08:30.328Z,55.04
2022-11-16T09:09:23.881Z,54.94
2022-11-16T09:10:17.438Z,54.74
2022-11-16T09:11:10.970Z,55.14
2022-11-16T09:12:04.532Z,54.84
2022-11-16T09:12:58.088Z,54.94
2022-11-16T09:13:51.642Z,54.14
2022-11-16T09:14:45.211Z,55.04
2022-11-16T09:15:38.757Z,55.24
2022-11-16T09:16:32.277Z,55.24
2022-11-16T09:17:25.891Z,54.94
2022-11-16T09:18:19.414Z,54.84
2022-11-16T09:19:12.975Z,54.94
2022-11-16T09:20:06.524Z,54.64
2022-11-16T09:21:00.081Z,55.04
2022-11-16T09:21:53.717Z,54.64
2022-11-16T09:22:37.309Z,54.74
2022-11-16T09:23:30.849Z,55.04
2022-11-16T09:24:24.415Z,54.84
2022-11-16T09:25:17.953Z,54.54
2022-11-16T09:26:11.505Z,53.84
2022-11-16T09:27:05.085Z,55.34
2022-11-16T09:27:58.633Z,55.04
2022-11-16T09:28:52.181Z,55.04
2022-11-16T09:29:45.718Z,54.64
2022-11-16T09:30:39.380Z,55.04
2022-11-16T09:31:32.867Z,54.14
2022-11-16T09:32:26.421Z,54.74
2022-11-16T09:33:19.986Z,54.64
2022-11-16T09:34:23.855Z,54.14
2022-11-16T09:35:07.540Z,54.74
2022-11-16T09:36:01.098Z,54.64
2022-11-16T09:36:54.644Z,54.34
2022-11-16T09:37:48.340Z,54.64
2022-11-16T09:39:13.870Z,54.54
2022-11-16T09:39:35.323Z,55.04
2022-11-16T09:40:28.902Z,54.74
2022-11-16T09:41:22.446Z,54.84
2022-11-16T09:42:15.995Z,55.04
2022-11-16T09:43:09.601Z,54.94
2022-11-16T09:44:03.090Z,55.34
2022-11-16T09:44:56.653Z,54.94
2022-11-16T09:45:50.208Z,54.94
2022-11-16T09:46:43.751Z,54.74
2022-11-16T09:47:37.310Z,54.84
2022-11-16T09:48:31.348Z,55.14
2022-11-16T09:49:24.910Z,55.04
2022-11-16T09:50:18.452Z,54.84
2022-11-16T09:51:11.984Z,54.74
2022-11-16T09:52:05.538Z,54.24
2022-11-16T09:52:59.225Z,54.24
2022-11-16T09:53:52.664Z,54.64
2022-11-16T09:54:56.482Z,54.74
2022-11-16T09:55:50.031Z,54.44
2022-11-16T09:56:43.589Z,54.54
2022-11-16T09:57:37.134Z,54.24
2022-11-16T09:58:31.736Z,54.64
2022-11-16T09:59:24.228Z,54.64
2022-11-16T10:00:17.778Z,54.74
2022-11-16T10:01:11.337Z,54.54
2022-11-16T10:02:04.860Z,54.74
2022-11-16T10:02:58.425Z,54.94
2022-11-16T10:03:51.992Z,54.34
2022-11-16T10:04:45.529Z,54.34
2022-11-16T10:05:39.092Z,54.94
2022-11-16T10:06:22.761Z,54.64
2022-11-16T10:07:16.379Z,54.94
2022-11-16T10:08:09.903Z,54.74
2022-11-16T10:09:03.451Z,54.84
2022-11-16T10:09:56.991Z,54.24
2022-11-16T10:10:40.711Z,55.04
2022-11-16T10:11:34.233Z,54.74
2022-11-16T10:12:27.784Z,54.64
2022-11-16T10:13:21.333Z,54.14
2022-11-16T10:14:14.892Z,54.64
2022-11-16T10:15:08.452Z,54.74
2022-11-16T10:16:02.030Z,54.84
2022-11-16T10:16:55.625Z,54.94
2022-11-16T10:17:49.153Z,54.24
2022-11-16T10:18:42.705Z,54.71
2022-11-16T10:19:36.269Z,54.44
2022-11-16T10:20:30.978Z,54.74
2022-11-16T10:21:23.377Z,54.74
2022-11-16T10:22:16.914Z,54.54
2022-11-16T10:23:10.467Z,54.24
2022-11-16T10:24:04.150Z,54.54
2022-11-16T10:24:57.581Z,54.24
2022-11-16T10:25:51.120Z,54.14
2022-11-16T10:26:45.766Z,54.34
2022-11-16T10:27:39.412Z,54.44
2022-11-16T10:28:33.041Z,54.74
2022-11-16T10:29:26.670Z,54.24
2022-11-16T10:30:20.389Z,54.94
2022-11-16T10:31:13.928Z,54.84
2022-11-16T10:32:07.637Z,54.34
2022-11-16T10:33:02.141Z,54.94
2022-11-16T10:33:55.897Z,54.44
2022-11-16T10:34:49.542Z,54.64
2022-11-16T10:35:33.416Z,54.74
2022-11-16T10:36:27.037Z,54.74
2022-11-16T10:37:20.652Z,54.74
2022-11-16T10:38:14.287Z,54.74
2022-11-16T10:38:58.012Z,54.22
2022-11-16T10:39:51.823Z,54.24
2022-11-16T10:40:45.334Z,54.52
2022-11-16T10:41:38.964Z,54.94
2022-11-16T10:42:32.607Z,54.32
2022-11-16T10:43:26.321Z,54.94
2022-11-16T10:44:20.037Z,54.54
2022-11-16T10:45:13.659Z,54.41
2022-11-16T10:46:07.278Z,54.64
2022-11-16T10:47:00.900Z,54.91
2022-11-16T10:47:54.527Z,54.54
2022-11-16T10:48:48.155Z,54.74
2022-11-16T10:49:41.790Z,54.94
2022-11-16T10:50:25.458Z,54.64
2022-11-16T10:51:19.101Z,54.94
2022-11-16T10:52:12.821Z,54.54
2022-11-16T10:53:06.440Z,54.34
2022-11-16T10:54:00.061Z,54.94
2022-11-16T10:54:53.704Z,54.14
2022-11-16T10:55:47.310Z,54.44
2022-11-16T10:56:40.924Z,54.32
2022-11-16T10:57:34.542Z,54.54
2022-11-16T10:58:28.165Z,53.94
2022-11-16T10:59:21.789Z,54.74
2022-11-16T11:00:21.052Z,54.74
2022-11-16T11:01:09.229Z,54.14
2022-11-16T11:02:02.678Z,54.11
2022-11-16T11:02:56.387Z,54.94
2022-11-16T11:03:50.022Z,53.94
2022-11-16T11:04:43.637Z,54.34
2022-11-16T11:05:37.243Z,54.84
2022-11-16T11:06:30.902Z,54.41
2022-11-16T11:07:24.688Z,54.34
2022-11-16T11:08:18.247Z,54.14
2022-11-16T11:09:11.950Z,54.84
2022-11-16T11:10:05.706Z,54.14
2022-11-16T11:10:59.208Z,54.74
2022-11-16T11:11:52.841Z,54.84
2022-11-16T11:12:46.590Z,54.64
2022-11-16T11:13:40.282Z,54.14
2022-11-16T11:14:33.889Z,54.54
2022-11-16T11:15:27.541Z,54.74
2022-11-16T11:16:21.229Z,54.54
2022-11-16T11:17:14.870Z,55.21
2022-11-16T11:18:08.494Z,54.71
2022-11-16T11:19:02.115Z,54.34
2022-11-16T11:19:45.802Z,54.94
2022-11-16T11:20:44.528Z,54.02
2022-11-16T11:21:33.155Z,53.94
2022-11-16T11:22:26.788Z,54.41
2022-11-16T11:23:10.477Z,54.04